createdAt,value
2022-09-16T00:00:25.549Z,99976.61
2022-09-16T00:02:56.602Z,99977.02
2022-09-16T00:05:26.929Z,99978.70
2022-09-16T00:07:57.110Z,99975.41
2022-09-16T00:10:27.294Z,99978.55
2022-09-16T00:12:57.649Z,99973.42
2022-09-16T00:15:30.379Z,99974.55
2022-09-16T00:18:01.318Z,99979.52
2022-09-16T00:20:32.154Z,99982.14
2022-09-16T00:23:02.299Z,99979.13
2022-09-16T00:25:35.811Z,99979.40
2022-09-16T00:28:06.204Z,99976.58
2022-09-16T00:30:36.553Z,99976.13
2022-09-16T00:33:06.772Z,99975.65
2022-09-16T00:35:36.965Z,99981.66
2022-09-16T00:38:07.612Z,99979.40
2022-09-16T00:40:44.845Z,99981.64
2022-09-16T00:43:16.644Z,99984.88
2022-09-16T00:45:55.632Z,99983.12
2022-09-16T00:48:30.158Z,99980.40
2022-09-16T00:51:04.491Z,99980.05
2022-09-16T00:53:42.845Z,99985.60
2022-09-16T00:56:19.885Z,99984.05
2022-09-16T00:58:55.525Z,99982.22
2022-09-16T01:01:25.910Z,99984.88
2022-09-16T01:04:01.029Z,99983.62
2022-09-16T01:06:32.021Z,99981.49
2022-09-16T01:09:03.183Z,99979.32
2022-09-16T01:11:34.049Z,99976.84
2022-09-16T01:14:19.601Z,99979.88
2022-09-16T01:16:59.225Z,99976.09
2022-09-16T01:20:09.498Z,99977.61
2022-09-16T01:22:56.495Z,99977.48
2022-09-16T01:25:42.997Z,99975.69
2022-09-16T01:28:31.645Z,99975.90
2022-09-16T01:31:12.038Z,99977.41
2022-09-16T01:33:52.414Z,99980.59
2022-09-16T01:36:38.613Z,99978.48
2022-09-16T01:39:25.278Z,99980.28
2022-09-16T01:42:06.508Z,99973.72
2022-09-16T01:44:47.869Z,99980.54
2022-09-16T01:47:28.445Z,99981.86
2022-09-16T01:50:05.406Z,99981.07
2022-09-16T01:52:47.279Z,99984.44
2022-09-16T01:55:24.277Z,99982.84
2022-09-16T01:58:01.477Z,99983.14
2022-09-16T02:00:32.709Z,99982.17
2022-09-16T02:03:06.729Z,99978.98
2022-09-16T02:05:46.165Z,99977.13
2022-09-16T02:08:21.104Z,99975.33
2022-09-16T02:10:58.421Z,99972.86
2022-09-16T02:13:31.913Z,99972.05
2022-09-16T02:16:06.575Z,99969.89
2022-09-16T02:18:40.643Z,99965.34
2022-09-16T02:21:12.742Z,99964.32
2022-09-16T02:23:47.191Z,99961.48
2022-09-16T02:26:21.098Z,99959.72
2022-09-16T02:28:54.200Z,99961.41
2022-09-16T02:31:29.326Z,99960.27
2022-09-16T02:34:03.683Z,99959.05
2022-09-16T02:36:37.152Z,99961.55
2022-09-16T02:39:11.685Z,99960.02
2022-09-16T02:41:43.655Z,99956.21
2022-09-16T02:44:15.062Z,99954.64
2022-09-16T02:46:57.611Z,99957.39
2022-09-16T02:49:35.519Z,99955.43
2022-09-16T02:52:15.179Z,99955.35
2022-09-16T02:54:52.027Z,99956.34
2022-09-16T02:57:23.373Z,99957.22
2022-09-16T02:59:54.788Z,99954.04
2022-09-16T03:02:25.754Z,99950.15
2022-09-16T03:04:55.903Z,99951.26
2022-09-16T03:07:26.089Z,99948.63
2022-09-16T03:09:56.842Z,99948.46
2022-09-16T03:12:57.379Z,99947.98
2022-09-16T03:15:37.965Z,99944.27
2022-09-16T03:18:23.845Z,99946.00
2022-09-16T03:21:01.669Z,99947.11
2022-09-16T03:23:35.400Z,99946.64
2022-09-16T03:26:16.750Z,99946.05
2022-09-16T03:29:04.539Z,99945.55
2022-09-16T03:31:41.606Z,99946.69
2022-09-16T03:34:22.166Z,99947.02
2022-09-16T03:36:57.854Z,99947.33
2022-09-16T03:39:28.302Z,99945.89
2022-09-16T03:42:03.483Z,99948.94
2022-09-16T03:44:41.345Z,99944.48
2022-09-16T03:47:10.761Z,99951.10
2022-09-16T03:49:41.609Z,99950.55
2022-09-16T03:52:12.146Z,99948.36
2022-09-16T03:54:43.198Z,99947.04
2022-09-16T03:57:13.768Z,99944.48
2022-09-16T03:59:44.246Z,99942.15
2022-09-16T04:02:14.397Z,99939.89
2022-09-16T04:04:44.605Z,99939.73
2022-09-16T04:07:14.933Z,99938.35
2022-09-16T04:09:45.116Z,99934.75
2022-09-16T04:12:15.583Z,99935.83
2022-09-16T04:14:46.044Z,99939.48
2022-09-16T04:17:16.222Z,99936.58
2022-09-16T04:19:46.601Z,99936.41
2022-09-16T04:22:17.806Z,99934.90
2022-09-16T04:24:48.272Z,99937.17
2022-09-16T04:27:19.574Z,99935.98
2022-09-16T04:29:50.027Z,99928.10
2022-09-16T04:32:20.259Z,99927.60
2022-09-16T04:34:51.832Z,99924.29
2022-09-16T04:37:22.346Z,99920.88
2022-09-16T04:39:53.389Z,99923.91
2022-09-16T04:42:23.631Z,99922.60
2022-09-16T04:44:54.243Z,99923.49
2022-09-16T04:47:24.463Z,99924.22
2022-09-16T04:49:54.890Z,99928.53
2022-09-16T04:52:25.294Z,99921.15
2022-09-16T04:54:58.200Z,99924.53
2022-09-16T04:57:30.957Z,99927.13
2022-09-16T05:00:01.507Z,99925.25
2022-09-16T05:02:32.243Z,99925.64
2022-09-16T05:05:02.769Z,99925.06
2022-09-16T05:07:33.005Z,99919.69
2022-09-16T05:10:03.178Z,99920.00
2022-09-16T05:12:34.017Z,99922.83
2022-09-16T05:15:04.522Z,99924.98
2022-09-16T05:17:50.430Z,99927.54
2022-09-16T05:20:21.700Z,99927.92
2022-09-16T05:22:52.555Z,99932.05
2022-09-16T05:25:22.711Z,99931.30
2022-09-16T05:27:53.123Z,99930.61
2022-09-16T05:30:26.091Z,99932.83
2022-09-16T05:32:56.882Z,99932.28
2022-09-16T05:35:27.179Z,99940.28
2022-09-16T05:37:57.302Z,99935.50
2022-09-16T05:40:29.105Z,99934.49
2022-09-16T05:42:59.751Z,99937.71
2022-09-16T05:45:32.361Z,99933.25
2022-09-16T05:48:03.359Z,99933.40
2022-09-16T05:50:33.803Z,99932.96
2022-09-16T05:53:04.258Z,99936.69
2022-09-16T05:55:34.446Z,99933.35
2022-09-16T05:58:06.343Z,99931.87
2022-09-16T06:00:36.563Z,99926.89
2022-09-16T06:03:06.919Z,99927.82
2022-09-16T06:05:37.404Z,99928.28
2022-09-16T06:08:08.029Z,99925.45
2022-09-16T06:10:42.074Z,99921.41
2022-09-16T06:13:12.509Z,99922.77
2022-09-16T06:15:52.015Z,99926.01
2022-09-16T06:18:22.945Z,99927.49
2022-09-16T06:20:53.860Z,99932.86
2022-09-16T06:23:25.201Z,99925.75
2022-09-16T06:26:03.796Z,99930.11
2022-09-16T06:28:34.291Z,99933.05
2022-09-16T06:31:09.826Z,99931.77
2022-09-16T06:33:41.370Z,99929.40
2022-09-16T06:36:14.645Z,99925.91
2022-09-16T06:38:45.238Z,99927.50
2022-09-16T06:41:17.433Z,99923.25
2022-09-16T06:43:48.229Z,99922.65
2022-09-16T06:46:21.004Z,99922.11
2022-09-16T06:48:52.942Z,99924.92
2022-09-16T06:51:25.014Z,99928.34
2022-09-16T06:53:57.173Z,99929.77
2022-09-16T06:56:28.147Z,99925.66
2022-09-16T06:58:58.694Z,99927.59
2022-09-16T07:01:32.221Z,99926.30
2022-09-16T07:04:06.349Z,99929.70
2022-09-16T07:09:27.258Z,99925.80
2022-09-16T07:11:59.354Z,99923.95
2022-09-16T07:14:32.480Z,99926.06
2022-09-16T07:17:03.122Z,99927.88
2022-09-16T07:19:33.425Z,99929.77
2022-09-16T07:22:03.936Z,99928.23
2022-09-16T07:24:34.361Z,99931.58
2022-09-16T07:27:04.598Z,99930.67
2022-09-16T07:29:35.061Z,99924.27
2022-09-16T07:32:05.558Z,99925.70
2022-09-16T07:34:36.483Z,99925.00
2022-09-16T07:37:06.946Z,99931.02
2022-09-16T07:39:37.417Z,99935.52
2022-09-16T07:42:07.891Z,99937.00
2022-09-16T07:44:38.027Z,99935.38
2022-09-16T07:47:08.282Z,99939.98
2022-09-16T07:49:38.486Z,99941.61
2022-09-16T07:52:08.625Z,99935.38
2022-09-16T07:54:38.847Z,99941.86
2022-09-16T07:57:09.683Z,99941.25
2022-09-16T07:59:40.114Z,99941.14
2022-09-16T08:02:11.973Z,99944.67
2022-09-16T08:04:42.308Z,99943.13
2022-09-16T08:07:12.623Z,99944.66
2022-09-16T08:09:48.571Z,99943.94
2022-09-16T08:12:20.951Z,99950.25
2022-09-16T08:14:51.477Z,99947.52
2022-09-16T08:17:21.593Z,99951.67
2022-09-16T08:19:51.765Z,99949.57
2022-09-16T08:22:23.520Z,99948.50
2022-09-16T08:24:53.849Z,99951.86
2022-09-16T08:27:23.980Z,99952.84
2022-09-16T08:29:54.686Z,99952.53
2022-09-16T08:32:24.889Z,99950.52
2022-09-16T08:34:55.415Z,99948.45
2022-09-16T08:37:26.170Z,99946.08
2022-09-16T08:39:56.418Z,99950.52
2022-09-16T08:42:36.917Z,99946.09
2022-09-16T08:45:20.540Z,99944.32
2022-09-16T08:48:08.933Z,99946.43
2022-09-16T08:50:41.829Z,99945.05
2022-09-16T08:53:18.987Z,99948.96
2022-09-16T08:55:51.460Z,99949.41
2022-09-16T08:58:24.446Z,99945.14
2022-09-16T09:00:58.120Z,99948.42
2022-09-16T09:03:37.781Z,99948.40
2022-09-16T09:06:18.427Z,99948.09
2022-09-16T09:08:59.509Z,99946.30
2022-09-16T09:11:36.202Z,99947.60
2022-09-16T09:14:23.071Z,99944.55
2022-09-16T09:17:00.189Z,99946.83
2022-09-16T09:19:44.458Z,99943.31
2022-09-16T09:22:33.717Z,99945.56
2022-09-16T09:25:20.859Z,99943.61
2022-09-16T09:27:59.843Z,99943.98
2022-09-16T09:30:32.140Z,99942.52
2022-09-16T09:33:41.441Z,99939.21
2022-09-16T09:36:21.869Z,99940.11
2022-09-16T09:39:08.802Z,99941.48
2022-09-16T09:41:44.306Z,99938.88
2022-09-16T09:44:34.898Z,99937.10
2022-09-16T09:47:11.988Z,99943.80
2022-09-16T09:49:47.783Z,99937.33
2022-09-16T09:52:22.154Z,99937.33
2022-09-16T09:54:53.663Z,99934.61
2022-09-16T09:57:34.688Z,99929.37
2022-09-16T10:00:12.946Z,99924.29
2022-09-16T10:02:48.850Z,99921.48
2022-09-16T10:05:24.683Z,99921.69
2022-09-16T10:07:57.191Z,99919.39
2022-09-16T10:10:30.273Z,99919.08
2022-09-16T10:13:09.890Z,99918.70
2022-09-16T10:15:40.455Z,99917.23
2022-09-16T10:18:24.406Z,99916.77
2022-09-16T10:21:04.035Z,99908.68
2022-09-16T10:23:35.296Z,99907.21
2022-09-16T10:26:21.376Z,99904.84
2022-09-16T10:29:01.359Z,99909.86
2022-09-16T10:31:36.587Z,99907.90
2022-09-16T10:34:17.216Z,99909.73
2022-09-16T10:36:47.755Z,99903.36
2022-09-16T10:39:26.927Z,99898.23
2022-09-16T10:41:57.917Z,99897.23
2022-09-16T10:44:30.973Z,99891.69
2022-09-16T10:47:07.072Z,99886.51
2022-09-16T10:49:44.552Z,99890.73
2022-09-16T10:52:23.594Z,99889.84
2022-09-16T10:54:54.736Z,99888.14
2022-09-16T10:57:28.726Z,99887.29
2022-09-16T11:00:18.067Z,99891.29
2022-09-16T11:03:19.676Z,99883.77
2022-09-16T11:06:01.210Z,99888.16
2022-09-16T11:08:45.515Z,99890.33
2022-09-16T11:11:24.187Z,99884.70
2022-09-16T11:14:02.841Z,99882.64
2022-09-16T11:16:55.502Z,99875.33
2022-09-16T11:19:34.438Z,99878.49
2022-09-16T11:22:19.145Z,99874.95
2022-09-16T11:25:09.815Z,99873.61
2022-09-16T11:28:02.046Z,99872.77
2022-09-16T11:30:39.042Z,99871.15
2022-09-16T11:33:27.802Z,99875.73
2022-09-16T11:36:21.187Z,99870.08
2022-09-16T11:39:04.055Z,99867.79
2022-09-16T11:41:41.006Z,99871.14
2022-09-16T11:44:27.796Z,99867.08
2022-09-16T11:47:09.415Z,99862.83
2022-09-16T11:49:56.562Z,99858.45
2022-09-16T11:52:40.892Z,99855.02
2022-09-16T11:55:26.240Z,99854.39
2022-09-16T11:58:01.559Z,99847.74
2022-09-16T12:00:35.616Z,99849.81
2022-09-16T12:03:11.585Z,99852.48
2022-09-16T12:05:45.748Z,99845.91
2022-09-16T12:08:23.142Z,99844.04
2022-09-16T12:10:58.292Z,99844.09
2022-09-16T12:13:32.438Z,99839.67
2022-09-16T12:16:07.381Z,99834.90
2022-09-16T12:18:43.533Z,99831.02
2022-09-16T12:21:25.554Z,99833.17
2022-09-16T12:24:00.841Z,99836.50
2022-09-16T12:26:38.080Z,99834.29
2022-09-16T12:29:18.119Z,99832.02
2022-09-16T12:31:53.314Z,99824.43
2022-09-16T12:34:27.807Z,99824.75
2022-09-16T12:37:06.612Z,99819.10
2022-09-16T12:39:36.751Z,99819.70
2022-09-16T12:42:45.890Z,99826.77
2022-09-16T12:45:35.828Z,99848.11
2022-09-16T12:48:24.942Z,99851.79
2022-09-16T12:51:21.359Z,99842.45
2022-09-16T12:54:06.453Z,99837.67
2022-09-16T12:57:04.653Z,99832.35
2022-09-16T13:00:08.323Z,99833.91
2022-09-16T13:02:42.474Z,99826.33
2022-09-16T13:05:23.078Z,99829.59
2022-09-16T13:07:56.878Z,99826.27
2022-09-16T13:10:55.841Z,99820.09
2022-09-16T13:13:30.929Z,99818.27
2022-09-16T13:16:03.983Z,99820.00
2022-09-16T13:18:47.809Z,99815.85
2022-09-16T13:21:26.272Z,99813.57
2022-09-16T13:24:05.225Z,99816.33
2022-09-16T13:26:46.755Z,99828.05
2022-09-16T13:29:44.284Z,99846.01
2022-09-16T13:32:41.141Z,99859.90
2022-09-16T13:35:37.345Z,99868.11
2022-09-16T13:38:26.609Z,99865.61
2022-09-16T13:41:02.702Z,99864.45
2022-09-16T13:43:36.071Z,99854.31
2022-09-16T13:46:16.287Z,99844.77
2022-09-16T13:48:54.835Z,99843.55
2022-09-16T13:51:26.465Z,99840.02
2022-09-16T13:54:02.711Z,99838.61
2022-09-16T13:56:53.881Z,99834.48
2022-09-16T13:59:38.823Z,99829.58
2022-09-16T14:02:20.332Z,99833.16
2022-09-16T14:05:06.664Z,99828.27
2022-09-16T14:07:48.095Z,99831.15
2022-09-16T14:10:24.787Z,99827.58
2022-09-16T14:13:07.464Z,99829.92
2022-09-16T14:15:42.797Z,99830.22
2022-09-16T14:18:17.784Z,99831.80
2022-09-16T14:21:01.082Z,99834.98
2022-09-16T14:23:32.953Z,99822.89
2022-09-16T14:26:14.546Z,99822.77
2022-09-16T14:28:44.710Z,99825.02
2022-09-16T14:31:19.713Z,99820.70
2022-09-16T14:33:56.540Z,99817.84
2022-09-16T14:36:32.050Z,99812.52
2022-09-16T14:39:11.740Z,99809.46
2022-09-16T14:41:45.557Z,99806.17
2022-09-16T14:44:25.248Z,99808.33
2022-09-16T14:47:07.551Z,99805.48
2022-09-16T14:49:41.194Z,99800.56
2022-09-16T14:52:21.123Z,99797.56
2022-09-16T14:54:51.899Z,99798.05
2022-09-16T14:57:26.122Z,99795.27
2022-09-16T14:59:59.155Z,99791.98
2022-09-16T15:02:34.069Z,99792.76
2022-09-16T15:05:17.376Z,99791.50
2022-09-16T15:08:12.136Z,99793.83
2022-09-16T15:10:54.956Z,99788.80
2022-09-16T15:13:28.794Z,99789.35
2022-09-16T15:16:03.535Z,99785.98
2022-09-16T15:18:35.785Z,99786.48
2022-09-16T15:21:11.745Z,99780.93
2022-09-16T15:23:47.402Z,99784.89
2022-09-16T15:26:22.796Z,99778.60
2022-09-16T15:28:57.410Z,99775.23
2022-09-16T15:31:34.769Z,99774.24
2022-09-16T15:34:20.725Z,99776.97
2022-09-16T15:36:52.511Z,99768.38
2022-09-16T15:39:29.080Z,99770.66
2022-09-16T15:42:18.261Z,99770.35
2022-09-16T15:44:51.798Z,99772.52
2022-09-16T15:47:25.781Z,99766.68
2022-09-16T15:50:00.360Z,99764.41
2022-09-16T15:52:34.169Z,99768.10
2022-09-16T15:55:07.133Z,99763.08
2022-09-16T15:57:42.600Z,99759.70
2022-09-16T16:00:16.315Z,99758.58
2022-09-16T16:02:53.293Z,99761.46
2022-09-16T16:05:26.289Z,99753.56
2022-09-16T16:07:58.350Z,99755.67
2022-09-16T16:10:31.262Z,99755.20
2022-09-16T16:13:04.061Z,99752.69
2022-09-16T16:15:38.701Z,99749.23
2022-09-16T16:18:10.661Z,99751.46
2022-09-16T16:20:41.751Z,99745.20
2022-09-16T16:23:13.249Z,99747.31
2022-09-16T16:25:50.967Z,99747.70
2022-09-16T16:28:21.239Z,99747.36
2022-09-16T16:30:52.035Z,99738.34
2022-09-16T16:33:22.999Z,99741.40
2022-09-16T16:35:53.387Z,99742.02
2022-09-16T16:38:23.553Z,99735.48
2022-09-16T16:40:54.492Z,99733.80
2022-09-16T16:43:24.722Z,99728.49
2022-09-16T16:45:58.043Z,99731.73
2022-09-16T16:48:29.810Z,99728.42
2022-09-16T16:51:02.395Z,99728.30
2022-09-16T16:53:33.052Z,99728.94
2022-09-16T16:56:13.838Z,99731.84
2022-09-16T16:58:45.822Z,99731.33
2022-09-16T17:01:18.745Z,99734.62
2022-09-16T17:03:50.273Z,99736.91
2022-09-16T17:06:21.197Z,99732.73
2022-09-16T17:08:51.310Z,99737.56
2022-09-16T17:11:23.158Z,99737.09
2022-09-16T17:13:58.274Z,99743.57
2022-09-16T17:16:29.247Z,99746.38
2022-09-16T17:19:01.892Z,99749.92
2022-09-16T17:21:34.506Z,99738.88
2022-09-16T17:24:05.224Z,99744.62
2022-09-16T17:26:35.891Z,99748.92
2022-09-16T17:29:14.943Z,99747.00
2022-09-16T17:31:46.785Z,99751.75
2022-09-16T17:34:17.810Z,99748.45
2022-09-16T17:36:48.886Z,99747.32
2022-09-16T17:39:20.814Z,99750.55
2022-09-16T17:41:52.058Z,99747.27
2022-09-16T17:44:22.685Z,99749.48
2022-09-16T17:46:52.887Z,99751.78
2022-09-16T17:49:24.887Z,99748.69
2022-09-16T17:51:55.680Z,99745.58
2022-09-16T17:54:26.057Z,99745.30
2022-09-16T17:57:00.082Z,99749.10
2022-09-16T17:59:30.946Z,99746.20
2022-09-16T18:02:01.634Z,99739.08
2022-09-16T18:04:32.673Z,99740.95
2022-09-16T18:07:03.217Z,99743.24
2022-09-16T18:09:33.865Z,99754.58
2022-09-16T18:12:07.417Z,99752.73
2022-09-16T18:14:37.978Z,99762.26
2022-09-16T18:17:12.947Z,99777.39
2022-09-16T18:19:43.493Z,99784.74
2022-09-16T18:22:14.270Z,99783.73
2022-09-16T18:24:44.802Z,99781.67
2022-09-16T18:27:18.171Z,99775.73
2022-09-16T18:29:51.457Z,99771.82
2022-09-16T18:32:21.906Z,99770.45
2022-09-16T18:34:52.323Z,99770.08
2022-09-16T18:37:22.462Z,99767.33
2022-09-16T18:39:52.749Z,99763.66
2022-09-16T18:42:22.991Z,99765.27
2022-09-16T18:44:53.400Z,99769.20
2022-09-16T18:47:24.102Z,99764.16
2022-09-16T18:49:54.309Z,99764.48
2022-09-16T18:52:24.506Z,99766.70
2022-09-16T18:54:54.950Z,99772.85
2022-09-16T18:57:25.522Z,99773.70
2022-09-16T18:59:55.695Z,99772.80
2022-09-16T19:02:26.210Z,99769.33
2022-09-16T19:04:56.675Z,99772.06
2022-09-16T19:07:28.190Z,99769.50
2022-09-16T19:09:58.873Z,99774.88
2022-09-16T19:12:29.155Z,99774.89
2022-09-16T19:14:59.913Z,99769.35
2022-09-16T19:17:31.006Z,99767.88
2022-09-16T19:20:01.144Z,99772.05
2022-09-16T19:22:31.677Z,99783.05
2022-09-16T19:25:02.405Z,99783.63
2022-09-16T19:27:33.669Z,99781.73
2022-09-16T19:30:04.261Z,99780.15
2022-09-16T19:32:34.703Z,99789.90
2022-09-16T19:35:05.501Z,99786.44
2022-09-16T19:37:35.815Z,99788.00
2022-09-16T19:40:06.619Z,99795.40
2022-09-16T19:42:37.698Z,99792.95
2022-09-16T19:45:09.854Z,99801.76
2022-09-16T19:47:40.426Z,99797.20
2022-09-16T19:50:11.780Z,99803.65
2022-09-16T19:52:42.124Z,99806.04
2022-09-16T19:55:12.284Z,99809.39
2022-09-16T19:57:42.797Z,99804.66
2022-09-16T20:00:15.795Z,99803.27
2022-09-16T20:02:47.758Z,99802.39
2022-09-16T20:05:18.141Z,99804.29
2022-09-16T20:07:48.683Z,99806.46
2022-09-16T20:10:19.130Z,99810.88
2022-09-16T20:12:49.957Z,99807.62
2022-09-16T20:15:20.168Z,99814.10
2022-09-16T20:17:50.311Z,99813.52
2022-09-16T20:20:22.256Z,99815.50
2022-09-16T20:22:54.114Z,99817.08
2022-09-16T20:25:24.213Z,99822.34
2022-09-16T20:27:54.346Z,99821.61
2022-09-16T20:30:25.696Z,99820.02
2022-09-16T20:32:56.477Z,99829.58
2022-09-16T20:35:26.660Z,99829.66
2022-09-16T20:37:56.897Z,99831.98
2022-09-16T20:40:27.438Z,99833.21
2022-09-16T20:42:58.078Z,99833.58
2022-09-16T20:45:28.805Z,99840.10
2022-09-16T20:47:59.300Z,99834.00
2022-09-16T20:50:29.729Z,99839.95
2022-09-16T20:53:00.334Z,99841.98
2022-09-16T20:55:30.926Z,99847.02
2022-09-16T20:58:01.134Z,99848.52
2022-09-16T21:00:31.629Z,99845.94
2022-09-16T21:03:02.241Z,99845.52
2022-09-16T21:05:32.393Z,99847.56
2022-09-16T21:08:03.363Z,99848.82
2022-09-16T21:10:36.046Z,99848.35
2022-09-16T21:13:06.607Z,99846.37
2022-09-16T21:15:37.144Z,99845.13
2022-09-16T21:18:07.509Z,99849.09
2022-09-16T21:20:37.605Z,99851.61
2022-09-16T21:23:08.134Z,99849.33
2022-09-16T21:25:38.284Z,99853.33
2022-09-16T21:28:08.672Z,99851.11
2022-09-16T21:30:38.929Z,99853.33
2022-09-16T21:33:09.137Z,99859.42
2022-09-16T21:35:40.232Z,99861.13
2022-09-16T21:38:10.858Z,99861.63
2022-09-16T21:40:41.033Z,99861.02
2022-09-16T21:43:11.718Z,99866.48
2022-09-16T21:45:47.173Z,99871.61
2022-09-16T21:48:19.448Z,99868.40
2022-09-16T21:50:50.396Z,99869.62
2022-09-16T21:53:21.533Z,99868.73
2022-09-16T21:55:51.638Z,99869.61
2022-09-16T21:58:21.838Z,99869.80
2022-09-16T22:00:52.165Z,99874.38
2022-09-16T22:03:22.510Z,99873.64
2022-09-16T22:05:52.597Z,99879.27
2022-09-16T22:08:23.082Z,99875.20
2022-09-16T22:10:53.313Z,99873.14
2022-09-16T22:13:23.523Z,99870.98
2022-09-16T22:15:54.229Z,99873.12
2022-09-16T22:18:24.859Z,99874.17
2022-09-16T22:20:58.534Z,99875.64
2022-09-16T22:23:28.667Z,99879.16
2022-09-16T22:25:58.864Z,99880.95
2022-09-16T22:28:29.020Z,99884.04
2022-09-16T22:31:10.148Z,99880.89
2022-09-16T22:33:41.488Z,99874.81
2022-09-16T22:36:14.972Z,99877.28
2022-09-16T22:38:49.336Z,99876.45
2022-09-16T22:41:20.305Z,99873.76
2022-09-16T22:43:52.950Z,99872.61
2022-09-16T22:46:25.733Z,99873.33
2022-09-16T22:48:57.905Z,99872.07
2022-09-16T22:51:29.061Z,99873.23
2022-09-16T22:53:59.445Z,99870.37
2022-09-16T22:56:32.328Z,99874.33
2022-09-16T22:59:04.512Z,99874.33
2022-09-16T23:01:36.637Z,99872.64
2022-09-16T23:04:08.904Z,99868.54
2022-09-16T23:06:41.322Z,99869.12
2022-09-16T23:09:13.726Z,99868.90
2022-09-16T23:11:43.878Z,99871.69
2022-09-16T23:14:21.664Z,99869.19
2022-09-16T23:16:50.342Z,99871.16
2022-09-16T23:19:21.116Z,99868.90
2022-09-16T23:21:51.338Z,99868.83
2022-09-16T23:24:23.318Z,99873.16
2022-09-16T23:26:53.412Z,99864.16
2022-09-16T23:29:23.802Z,99868.59
2022-09-16T23:31:53.917Z,99865.49
2022-09-16T23:34:24.334Z,99861.30
2022-09-16T23:36:54.807Z,99854.93
2022-09-16T23:39:25.185Z,99858.39
2022-09-16T23:41:56.403Z,99856.91
2022-09-16T23:44:26.570Z,99855.26
2022-09-16T23:46:57.512Z,99857.72
2022-09-16T23:49:27.799Z,99862.78
2022-09-16T23:51:58.007Z,99864.15
2022-09-16T23:54:28.970Z,99862.86
2022-09-16T23:56:59.514Z,99867.11
2022-09-16T23:59:29.611Z,99859.80
